PWSweather.com
Personal Weather Stations
Station Observations
KCOGRAND2
Redlands, Southcamp Road & Dakota Circle, Grand Junction, CO 81507

Redlands, Southcamp Road & Dakota CircleGrand Junction, CO 81507

Lat: 39.055, Lon: -108.637

Elevation: 4870

Station Type: RadioShack WX200

Latest ConditionsUpdated 7:20:10 AM MDT Wednesday, Jul 29, 2015
Currently Today's Max Today's Min Today's Average
Temperature 69.1°F20.6°C 73.8°F23.2°C 63.3°F17.4°C 69.1°F20.6°C
Dew Point -5537.2°C 0.0°F-17.8°C 0.0°F-17.8°C 0.0°F-17.8°C
Winds 6.0 mph N9.7 kmh N 7.0 mph SE11.3 kmh SE - 3.5 mph 5.6 kmh
Wind Gusts 11.2 mph18.0 kmh 11.2 mph18.0 kmh - -
Humidity - 0% 0% 0%
Pressure 25.22 in854.0 mb 25.22 in854.0 mb 25.16 in852.0 mb -
Hour Temp Dew Point Humidity Winds Wind Gusts Pressure Precip Precip Rate Daily Precip Total
07:20 AM 69.1°F20.6°C -5537.2°C - 6.0 mph N9.7 kmh N 11.2 mph18.0 kmh 25.22 in854.0 mb 0.00 in0.0 mm 0.00 in0.0 mm 0.00 in0.0 mm
07:15 AM 68.5°F20.3°C -5537.2°C - 6.0 mph 9.7 kmh 8.3 mph13.4 kmh 25.22 in854.0 mb 0.00 in0.0 mm 0.00 in0.0 mm 0.00 in0.0 mm
07:10 AM 68.5°F20.3°C -5537.2°C - 6.0 mph N9.7 kmh N 8.3 mph13.4 kmh 25.22 in854.0 mb 0.00 in0.0 mm 0.00 in0.0 mm 0.00 in0.0 mm
07:05 AM 68.4°F20.2°C -5537.2°C - 5.0 mph N8.0 kmh N 7.8 mph12.6 kmh 25.22 in854.0 mb 0.00 in0.0 mm 0.00 in0.0 mm 0.00 in0.0 mm
07:00 AM 67.5°F19.7°C -5537.2°C - 6.0 mph N9.7 kmh N 6.9 mph11.1 kmh 25.22 in854.0 mb 0.00 in0.0 mm 0.00 in0.0 mm 0.00 in0.0 mm
06:55 AM 67.5°F19.7°C -5537.2°C - 6.0 mph N9.7 kmh N 8.3 mph13.4 kmh 25.22 in854.0 mb 0.00 in0.0 mm 0.00 in0.0 mm 0.00 in0.0 mm
06:50 AM 67.8°F19.9°C -5537.2°C - 6.0 mph N9.7 kmh N 9.2 mph14.8 kmh 25.22 in854.0 mb 0.00 in0.0 mm 0.00 in0.0 mm 0.00 in0.0 mm
06:45 AM 67.8°F19.9°C -5537.2°C - 6.0 mph NNE9.7 kmh NNE 7.8 mph12.6 kmh 25.22 in854.0 mb 0.00 in0.0 mm 0.00 in0.0 mm 0.00 in0.0 mm
06:40 AM 67.8°F19.9°C -5537.2°C - 6.0 mph N9.7 kmh N 8.3 mph13.4 kmh 25.22 in854.0 mb 0.00 in0.0 mm 0.00 in0.0 mm 0.00 in0.0 mm
06:35 AM 68.7°F20.4°C -5537.2°C - 6.0 mph N9.7 kmh N 9.2 mph14.8 kmh 25.22 in854.0 mb 0.00 in0.0 mm 0.00 in0.0 mm 0.00 in0.0 mm
06:30 AM 68.9°F20.5°C -5537.2°C - 6.0 mph N9.7 kmh N 9.2 mph14.8 kmh 25.22 in854.0 mb 0.00 in0.0 mm 0.00 in0.0 mm 0.00 in0.0 mm
06:25 AM 68.4°F20.2°C -5537.2°C - 6.0 mph NNE9.7 kmh NNE 10.1 mph16.3 kmh 25.22 in854.0 mb 0.00 in0.0 mm 0.00 in0.0 mm 0.00 in0.0 mm
06:20 AM 67.3°F19.6°C -5537.2°C - 6.0 mph NNE9.7 kmh NNE 11.0 mph17.7 kmh 25.22 in854.0 mb 0.00 in0.0 mm 0.00 in0.0 mm 0.00 in0.0 mm
06:14 AM 67.6°F19.8°C -5537.2°C - 6.0 mph NNE9.7 kmh NNE 8.7 mph14.0 kmh 25.22 in854.0 mb 0.00 in0.0 mm 0.00 in0.0 mm 0.00 in0.0 mm
06:09 AM 67.5°F19.7°C -5537.2°C - 6.0 mph NNE9.7 kmh NNE 9.2 mph14.8 kmh 25.22 in854.0 mb 0.00 in0.0 mm 0.00 in0.0 mm 0.00 in0.0 mm
06:04 AM 68.0°F20.0°C -5537.2°C - 6.0 mph N9.7 kmh N 9.6 mph15.4 kmh 25.22 in854.0 mb 0.00 in0.0 mm 0.00 in0.0 mm 0.00 in0.0 mm
05:59 AM 67.6°F19.8°C -5537.2°C - 5.0 mph N8.0 kmh N 9.6 mph15.4 kmh 25.22 in854.0 mb 0.00 in0.0 mm 0.00 in0.0 mm 0.00 in0.0 mm
05:54 AM 66.2°F19.0°C -5537.2°C - 2.0 mph NNE3.2 kmh NNE 9.6 mph15.4 kmh 25.22 in854.0 mb 0.00 in0.0 mm 0.00 in0.0 mm 0.00 in0.0 mm
05:49 AM 63.9°F17.7°C -5537.2°C - Calm Calm 3.1 mph5.0 kmh 25.22 in854.0 mb 0.00 in0.0 mm 0.00 in0.0 mm 0.00 in0.0 mm
05:44 AM 63.9°F17.7°C -5537.2°C - Calm Calm 3.1 mph5.0 kmh 25.22 in854.0 mb 0.00 in0.0 mm 0.00 in0.0 mm 0.00 in0.0 mm
05:39 AM 63.3°F17.4°C -5537.2°C - Calm Calm -- 25.19 in853.0 mb 0.00 in0.0 mm 0.00 in0.0 mm 0.00 in0.0 mm
05:34 AM 63.5°F17.5°C -5537.2°C - 1.0 mph NE1.6 kmh NE 3.1 mph5.0 kmh 25.19 in853.0 mb 0.00 in0.0 mm 0.00 in0.0 mm 0.00 in0.0 mm
05:29 AM 64.4°F18.0°C -5537.2°C - 2.0 mph NE3.2 kmh NE 4.0 mph6.4 kmh 25.19 in853.0 mb 0.00 in0.0 mm 0.00 in0.0 mm 0.00 in0.0 mm
05:24 AM 65.1°F18.4°C -5537.2°C - 2.0 mph NE3.2 kmh NE 4.0 mph6.4 kmh 25.19 in853.0 mb 0.00 in0.0 mm 0.00 in0.0 mm 0.00 in0.0 mm
05:19 AM 65.1°F18.4°C -5537.2°C - 3.0 mph NNE4.8 kmh NNE 5.8 mph9.3 kmh 25.19 in853.0 mb 0.00 in0.0 mm 0.00 in0.0 mm 0.00 in0.0 mm
05:14 AM 65.1°F18.4°C -5537.2°C - 3.0 mph N4.8 kmh N 5.8 mph9.3 kmh 25.19 in853.0 mb 0.00 in0.0 mm 0.00 in0.0 mm 0.00 in0.0 mm
05:09 AM 66.0°F18.9°C -5537.2°C - 3.0 mph NNE4.8 kmh NNE 5.8 mph9.3 kmh 25.19 in853.0 mb 0.00 in0.0 mm 0.00 in0.0 mm 0.00 in0.0 mm
05:04 AM 65.5°F18.6°C -5537.2°C - 3.0 mph NNE4.8 kmh NNE 4.9 mph7.9 kmh 25.19 in853.0 mb 0.00 in0.0 mm 0.00 in0.0 mm 0.00 in0.0 mm
04:59 AM 65.5°F18.6°C -5537.2°C - 3.0 mph NE4.8 kmh NE 5.4 mph8.7 kmh 25.19 in853.0 mb 0.00 in0.0 mm 0.00 in0.0 mm 0.00 in0.0 mm
04:54 AM 65.1°F18.4°C -5537.2°C - 2.0 mph NE3.2 kmh NE 4.9 mph7.9 kmh 25.19 in853.0 mb 0.00 in0.0 mm 0.00 in0.0 mm 0.00 in0.0 mm
04:49 AM 63.7°F17.6°C -5537.2°C - Calm Calm 3.1 mph5.0 kmh 25.19 in853.0 mb 0.00 in0.0 mm 0.00 in0.0 mm 0.00 in0.0 mm
04:44 AM 64.0°F17.8°C -5537.2°C - Calm Calm -- 25.19 in853.0 mb 0.00 in0.0 mm 0.00 in0.0 mm 0.00 in0.0 mm
04:39 AM 64.6°F18.1°C -5537.2°C - Calm Calm -- 25.19 in853.0 mb 0.00 in0.0 mm 0.00 in0.0 mm 0.00 in0.0 mm
04:34 AM 64.9°F18.3°C -5537.2°C - 2.0 mph NE3.2 kmh NE 4.0 mph6.4 kmh 25.19 in853.0 mb 0.00 in0.0 mm 0.00 in0.0 mm 0.00 in0.0 mm
04:29 AM 64.4°F18.0°C -5537.2°C - 3.0 mph NE4.8 kmh NE 4.5 mph7.2 kmh 25.19 in853.0 mb 0.00 in0.0 mm 0.00 in0.0 mm 0.00 in0.0 mm
04:24 AM 65.8°F18.8°C -5537.2°C - 1.0 mph NE1.6 kmh NE 5.4 mph8.7 kmh 25.19 in853.0 mb 0.00 in0.0 mm 0.00 in0.0 mm 0.00 in0.0 mm
04:19 AM 66.4°F19.1°C -5537.2°C - 1.0 mph NE1.6 kmh NE -- 25.19 in853.0 mb 0.00 in0.0 mm 0.00 in0.0 mm 0.00 in0.0 mm
04:14 AM 66.9°F19.4°C -5537.2°C - 2.0 mph ENE3.2 kmh ENE 5.8 mph9.3 kmh 25.19 in853.0 mb 0.00 in0.0 mm 0.00 in0.0 mm 0.00 in0.0 mm
04:09 AM 66.9°F19.4°C -5537.2°C - 1.0 mph E1.6 kmh E 4.9 mph7.9 kmh 25.19 in853.0 mb 0.00 in0.0 mm 0.00 in0.0 mm 0.00 in0.0 mm
04:04 AM 67.1°F19.5°C -5537.2°C - 2.0 mph E3.2 kmh E 3.1 mph5.0 kmh 25.19 in853.0 mb 0.00 in0.0 mm 0.00 in0.0 mm 0.00 in0.0 mm
03:59 AM 67.6°F19.8°C -5537.2°C - 4.0 mph E6.4 kmh E 5.8 mph9.3 kmh 25.19 in853.0 mb 0.00 in0.0 mm 0.00 in0.0 mm 0.00 in0.0 mm
03:54 AM 68.0°F20.0°C -5537.2°C - 3.0 mph E4.8 kmh E 7.8 mph12.6 kmh 25.19 in853.0 mb 0.00 in0.0 mm 0.00 in0.0 mm 0.00 in0.0 mm
03:49 AM 67.6°F19.8°C -5537.2°C - 3.0 mph E4.8 kmh E 4.9 mph7.9 kmh 25.19 in853.0 mb 0.00 in0.0 mm 0.00 in0.0 mm 0.00 in0.0 mm
03:44 AM 67.8°F19.9°C -5537.2°C - 3.0 mph ESE4.8 kmh ESE 6.3 mph10.1 kmh 25.19 in853.0 mb 0.00 in0.0 mm 0.00 in0.0 mm 0.00 in0.0 mm
03:39 AM 68.5°F20.3°C -5537.2°C - 3.0 mph SE4.8 kmh SE 5.4 mph8.7 kmh 25.19 in853.0 mb 0.00 in0.0 mm 0.00 in0.0 mm 0.00 in0.0 mm
03:34 AM 68.7°F20.4°C -5537.2°C - 2.0 mph SE3.2 kmh SE 4.9 mph7.9 kmh 25.19 in853.0 mb 0.00 in0.0 mm 0.00 in0.0 mm 0.00 in0.0 mm
03:29 AM 68.9°F20.5°C -5537.2°C - 3.0 mph SE4.8 kmh SE 5.8 mph9.3 kmh 25.19 in853.0 mb 0.00 in0.0 mm 0.00 in0.0 mm 0.00 in0.0 mm
03:24 AM 69.1°F20.6°C -5537.2°C - 3.0 mph SE4.8 kmh SE 6.3 mph10.1 kmh 25.19 in853.0 mb 0.00 in0.0 mm 0.00 in0.0 mm 0.00 in0.0 mm
03:19 AM 69.1°F20.6°C -5537.2°C - 2.0 mph SE3.2 kmh SE 6.9 mph11.1 kmh 25.19 in853.0 mb 0.00 in0.0 mm 0.00 in0.0 mm 0.00 in0.0 mm
03:14 AM 69.1°F20.6°C -5537.2°C - 1.0 mph SSE1.6 kmh SSE 4.0 mph6.4 kmh 25.19 in853.0 mb 0.00 in0.0 mm 0.00 in0.0 mm 0.00 in0.0 mm
03:09 AM 69.4°F20.8°C -5537.2°C - 3.0 mph SSE4.8 kmh SSE 5.4 mph8.7 kmh 25.16 in852.0 mb 0.00 in0.0 mm 0.00 in0.0 mm 0.00 in0.0 mm
03:04 AM 69.4°F20.8°C -5537.2°C - 2.0 mph SE3.2 kmh SE 6.7 mph10.8 kmh 25.16 in852.0 mb 0.00 in0.0 mm 0.00 in0.0 mm 0.00 in0.0 mm
02:59 AM 69.6°F20.9°C -5537.2°C - 2.0 mph SE3.2 kmh SE 3.1 mph5.0 kmh 25.16 in852.0 mb 0.00 in0.0 mm 0.00 in0.0 mm 0.00 in0.0 mm
02:54 AM 69.8°F21.0°C -5537.2°C - 3.0 mph SE4.8 kmh SE 6.3 mph10.1 kmh 25.16 in852.0 mb 0.00 in0.0 mm 0.00 in0.0 mm 0.00 in0.0 mm
02:49 AM 70.0°F21.1°C -5537.2°C - 4.0 mph SE6.4 kmh SE 7.8 mph12.6 kmh 25.16 in852.0 mb 0.00 in0.0 mm 0.00 in0.0 mm 0.00 in0.0 mm
02:44 AM 70.0°F21.1°C -5537.2°C - 3.0 mph ESE4.8 kmh ESE 8.3 mph13.4 kmh 25.16 in852.0 mb 0.00 in0.0 mm 0.00 in0.0 mm 0.00 in0.0 mm
02:39 AM 70.2°F21.2°C -5537.2°C - 1.0 mph E1.6 kmh E 4.0 mph6.4 kmh 25.16 in852.0 mb 0.00 in0.0 mm 0.00 in0.0 mm 0.00 in0.0 mm
02:34 AM 70.3°F21.3°C -5537.2°C - 3.0 mph E4.8 kmh E 4.9 mph7.9 kmh 25.16 in852.0 mb 0.00 in0.0 mm 0.00 in0.0 mm 0.00 in0.0 mm
02:29 AM 70.3°F21.3°C -5537.2°C - 4.0 mph ESE6.4 kmh ESE 6.7 mph10.8 kmh 25.16 in852.0 mb 0.00 in0.0 mm 0.00 in0.0 mm 0.00 in0.0 mm
02:24 AM 70.3°F21.3°C -5537.2°C - 2.0 mph ESE3.2 kmh ESE 6.9 mph11.1 kmh 25.16 in852.0 mb 0.00 in0.0 mm 0.00 in0.0 mm 0.00 in0.0 mm
02:19 AM 70.7°F21.5°C -5537.2°C - 1.0 mph ESE1.6 kmh ESE 3.6 mph5.8 kmh 25.16 in852.0 mb 0.00 in0.0 mm 0.00 in0.0 mm 0.00 in0.0 mm
02:14 AM 70.9°F21.6°C -5537.2°C - 3.0 mph SE4.8 kmh SE 5.4 mph8.7 kmh 25.16 in852.0 mb 0.00 in0.0 mm 0.00 in0.0 mm 0.00 in0.0 mm
02:09 AM 71.2°F21.8°C -5537.2°C - 5.0 mph SE8.0 kmh SE 7.4 mph11.9 kmh 25.16 in852.0 mb 0.00 in0.0 mm 0.00 in0.0 mm 0.00 in0.0 mm
02:04 AM 71.6°F22.0°C -5537.2°C - 6.0 mph SE9.7 kmh SE 9.6 mph15.4 kmh 25.16 in852.0 mb 0.00 in0.0 mm 0.00 in0.0 mm 0.00 in0.0 mm
01:59 AM 72.1°F22.3°C -5537.2°C - 6.0 mph SE9.7 kmh SE 11.0 mph17.7 kmh 25.16 in852.0 mb 0.00 in0.0 mm 0.00 in0.0 mm 0.00 in0.0 mm
01:54 AM 71.8°F22.1°C -5537.2°C - 5.0 mph SE8.0 kmh SE 9.6 mph15.4 kmh 25.16 in852.0 mb 0.00 in0.0 mm 0.00 in0.0 mm 0.00 in0.0 mm
01:49 AM 72.5°F22.5°C -5537.2°C - 4.0 mph SE6.4 kmh SE 7.8 mph12.6 kmh 25.16 in852.0 mb 0.00 in0.0 mm 0.00 in0.0 mm 0.00 in0.0 mm
01:44 AM 73.0°F22.8°C -5537.2°C - 5.0 mph ESE8.0 kmh ESE 10.1 mph16.3 kmh 25.16 in852.0 mb 0.00 in0.0 mm 0.00 in0.0 mm 0.00 in0.0 mm
01:39 AM 73.0°F22.8°C -5537.2°C - 6.0 mph ESE9.7 kmh ESE 10.1 mph16.3 kmh 25.16 in852.0 mb 0.00 in0.0 mm 0.00 in0.0 mm 0.00 in0.0 mm
01:34 AM 73.2°F22.9°C -5537.2°C - 7.0 mph SE11.3 kmh SE 11.0 mph17.7 kmh 25.16 in852.0 mb 0.00 in0.0 mm 0.00 in0.0 mm 0.00 in0.0 mm
01:29 AM 73.2°F22.9°C -5537.2°C - 6.0 mph ESE9.7 kmh ESE 11.2 mph18.0 kmh 25.16 in852.0 mb 0.00 in0.0 mm 0.00 in0.0 mm 0.00 in0.0 mm
01:24 AM 73.2°F22.9°C -5537.2°C - 6.0 mph SE9.7 kmh SE 9.6 mph15.4 kmh 25.16 in852.0 mb 0.00 in0.0 mm 0.00 in0.0 mm 0.00 in0.0 mm
01:19 AM 73.2°F22.9°C -5537.2°C - 6.0 mph SE9.7 kmh SE 10.5 mph16.9 kmh 25.16 in852.0 mb 0.00 in0.0 mm 0.00 in0.0 mm 0.00 in0.0 mm
01:14 AM 73.2°F22.9°C -5537.2°C - 6.0 mph SE9.7 kmh SE 10.1 mph16.3 kmh 25.16 in852.0 mb 0.00 in0.0 mm 0.00 in0.0 mm 0.00 in0.0 mm
01:09 AM 73.6°F23.1°C -5537.2°C - 5.0 mph SE8.0 kmh SE 10.1 mph16.3 kmh 25.16 in852.0 mb 0.00 in0.0 mm 0.00 in0.0 mm 0.00 in0.0 mm
01:04 AM 73.0°F22.8°C -5537.2°C - 4.0 mph ESE6.4 kmh ESE 11.2 mph18.0 kmh 25.16 in852.0 mb 0.00 in0.0 mm 0.00 in0.0 mm 0.00 in0.0 mm
12:59 AM 72.5°F22.5°C -5537.2°C - 3.0 mph E4.8 kmh E 5.8 mph9.3 kmh 25.16 in852.0 mb 0.00 in0.0 mm 0.00 in0.0 mm 0.00 in0.0 mm
12:54 AM 72.9°F22.7°C -5537.2°C - 4.0 mph E6.4 kmh E 6.9 mph11.1 kmh 25.16 in852.0 mb 0.00 in0.0 mm 0.00 in0.0 mm 0.00 in0.0 mm
12:49 AM 73.0°F22.8°C -5537.2°C - 4.0 mph E6.4 kmh E 6.9 mph11.1 kmh 25.16 in852.0 mb 0.00 in0.0 mm 0.00 in0.0 mm 0.00 in0.0 mm
12:44 AM 73.4°F23.0°C -5537.2°C - 4.0 mph E6.4 kmh E 6.7 mph10.8 kmh 25.16 in852.0 mb 0.00 in0.0 mm 0.00 in0.0 mm 0.00 in0.0 mm
12:39 AM 73.8°F23.2°C -5537.2°C - 4.0 mph ESE6.4 kmh ESE 8.7 mph14.0 kmh 25.16 in852.0 mb 0.00 in0.0 mm 0.00 in0.0 mm 0.00 in0.0 mm
12:34 AM 73.8°F23.2°C -5537.2°C - 4.0 mph ESE6.4 kmh ESE 6.7 mph10.8 kmh 25.16 in852.0 mb 0.00 in0.0 mm 0.00 in0.0 mm 0.00 in0.0 mm
12:29 AM 73.8°F23.2°C -5537.2°C - 2.0 mph E3.2 kmh E 8.3 mph13.4 kmh 25.16 in852.0 mb 0.00 in0.0 mm 0.00 in0.0 mm 0.00 in0.0 mm
12:24 AM 73.4°F23.0°C -5537.2°C - Calm Calm 3.6 mph5.8 kmh 25.16 in852.0 mb 0.00 in0.0 mm 0.00 in0.0 mm 0.00 in0.0 mm
12:19 AM 73.6°F23.1°C -5537.2°C - 1.0 mph E1.6 kmh E 3.1 mph5.0 kmh 25.16 in852.0 mb 0.00 in0.0 mm 0.00 in0.0 mm 0.00 in0.0 mm
12:14 AM 73.8°F23.2°C -5537.2°C - 1.0 mph E1.6 kmh E 4.5 mph7.2 kmh 25.16 in852.0 mb 0.00 in0.0 mm 0.00 in0.0 mm 0.00 in0.0 mm
12:08 AM 73.6°F23.1°C -5537.2°C - 2.0 mph E3.2 kmh E 3.6 mph5.8 kmh 25.16 in852.0 mb 0.00 in0.0 mm 0.00 in0.0 mm 0.00 in0.0 mm
12:03 AM 73.8°F23.2°C -5537.2°C - 4.0 mph E6.4 kmh E 5.4 mph8.7 kmh 25.16 in852.0 mb 0.00 in0.0 mm 0.00 in0.0 mm 0.00 in0.0 mm